sensor_id;sensor_type;location;lat;lon;timestamp;P1;durP1;ratioP1;P2;durP2;ratioP2
16640;SDS011;8434;47.990;7.880;2023-04-01T00:02:21;1.40;;;0.30;;
16640;SDS011;8434;47.990;7.880;2023-04-01T00:05:07;1.67;;;0.30;;
16640;SDS011;8434;47.990;7.880;2023-04-01T00:07:54;0.73;;;0.30;;
16640;SDS011;8434;47.990;7.880;2023-04-01T00:10:39;0.33;;;0.30;;
16640;SDS011;8434;47.990;7.880;2023-04-01T00:13:25;1.90;;;0.80;;
16640;SDS011;8434;47.990;7.880;2023-04-01T00:16:11;0.57;;;0.40;;
16640;SDS011;8434;47.990;7.880;2023-04-01T00:18:57;0.43;;;0.30;;
16640;SDS011;8434;47.990;7.880;2023-04-01T00:21:43;1.27;;;0.40;;
16640;SDS011;8434;47.990;7.880;2023-04-01T00:24:29;2.57;;;0.43;;
16640;SDS011;8434;47.990;7.880;2023-04-01T00:27:14;3.87;;;0.60;;
16640;SDS011;8434;47.990;7.880;2023-04-01T00:30:00;5.03;;;1.17;;
16640;SDS011;8434;47.990;7.880;2023-04-01T00:32:46;3.73;;;1.00;;
16640;SDS011;8434;47.990;7.880;2023-04-01T00:35:33;4.83;;;1.10;;
16640;SDS011;8434;47.990;7.880;2023-04-01T00:38:18;3.80;;;0.90;;
16640;SDS011;8434;47.990;7.880;2023-04-01T00:41:04;5.87;;;1.17;;
16640;SDS011;8434;47.990;7.880;2023-04-01T00:43:50;7.43;;;1.10;;
16640;SDS011;8434;47.990;7.880;2023-04-01T00:46:36;3.43;;;0.83;;
16640;SDS011;8434;47.990;7.880;2023-04-01T00:49:21;1.93;;;0.77;;
16640;SDS011;8434;47.990;7.880;2023-04-01T00:52:10;1.83;;;0.90;;
16640;SDS011;8434;47.990;7.880;2023-04-01T00:54:57;5.17;;;0.90;;
16640;SDS011;8434;47.990;7.880;2023-04-01T00:57:45;7.43;;;1.20;;
16640;SDS011;8434;47.990;7.880;2023-04-01T01:00:31;3.23;;;0.87;;
16640;SDS011;8434;47.990;7.880;2023-04-01T01:03:17;5.40;;;1.20;;
16640;SDS011;8434;47.990;7.880;2023-04-01T01:06:10;4.20;;;1.23;;
16640;SDS011;8434;47.990;7.880;2023-04-01T01:09:05;5.07;;;1.37;;
16640;SDS011;8434;47.990;7.880;2023-04-01T01:11:53;6.60;;;1.60;;
16640;SDS011;8434;47.990;7.880;2023-04-01T01:14:50;5.60;;;1.30;;
16640;SDS011;8434;47.990;7.880;2023-04-01T01:17:40;4.40;;;1.70;;
16640;SDS011;8434;47.990;7.880;2023-04-01T01:20:33;6.03;;;2.83;;
16640;SDS011;8434;47.990;7.880;2023-04-01T01:23:31;5.77;;;1.83;;
16640;SDS011;8434;47.990;7.880;2023-04-01T01:26:29;8.03;;;1.60;;
16640;SDS011;8434;47.990;7.880;2023-04-01T01:29:30;8.20;;;1.37;;
16640;SDS011;8434;47.990;7.880;2023-04-01T01:32:25;7.60;;;1.60;;
16640;SDS011;8434;47.990;7.880;2023-04-01T01:35:18;7.77;;;1.63;;
16640;SDS011;8434;47.990;7.880;2023-04-01T01:38:06;5.90;;;1.57;;
16640;SDS011;8434;47.990;7.880;2023-04-01T01:40:53;8.27;;;1.60;;
16640;SDS011;8434;47.990;7.880;2023-04-01T01:43:43;7.33;;;1.43;;
16640;SDS011;8434;47.990;7.880;2023-04-01T01:46:31;5.97;;;1.40;;
16640;SDS011;8434;47.990;7.880;2023-04-01T01:49:16;8.90;;;1.37;;
16640;SDS011;8434;47.990;7.880;2023-04-01T01:52:04;7.53;;;1.77;;
16640;SDS011;8434;47.990;7.880;2023-04-01T01:54:50;12.67;;;1.73;;
16640;SDS011;8434;47.990;7.880;2023-04-01T01:57:36;5.30;;;1.70;;
16640;SDS011;8434;47.990;7.880;2023-04-01T02:00:26;2.73;;;1.17;;
16640;SDS011;8434;47.990;7.880;2023-04-01T02:03:12;8.20;;;1.60;;
16640;SDS011;8434;47.990;7.880;2023-04-01T02:05:59;4.70;;;1.63;;
16640;SDS011;8434;47.990;7.880;2023-04-01T02:08:47;4.40;;;1.20;;
16640;SDS011;8434;47.990;7.880;2023-04-01T02:11:36;7.33;;;1.13;;
16640;SDS011;8434;47.990;7.880;2023-04-01T02:14:23;7.70;;;2.00;;
16640;SDS011;8434;47.990;7.880;2023-04-01T02:17:11;4.13;;;1.20;;
16640;SDS011;8434;47.990;7.880;2023-04-01T02:19:59;5.90;;;1.33;;
16640;SDS011;8434;47.990;7.880;2023-04-01T02:22:46;3.00;;;0.90;;
16640;SDS011;8434;47.990;7.880;2023-04-01T02:25:34;7.97;;;1.60;;
16640;SDS011;8434;47.990;7.880;2023-04-01T02:28:20;7.73;;;1.27;;
16640;SDS011;8434;47.990;7.880;2023-04-01T02:31:07;6.00;;;1.43;;
16640;SDS011;8434;47.990;7.880;2023-04-01T02:33:54;3.63;;;1.03;;
16640;SDS011;8434;47.990;7.880;2023-04-01T02:36:39;2.93;;;1.40;;
16640;SDS011;8434;47.990;7.880;2023-04-01T02:39:24;7.30;;;1.63;;
16640;SDS011;8434;47.990;7.880;2023-04-01T02:42:12;6.03;;;1.33;;
16640;SDS011;8434;47.990;7.880;2023-04-01T02:44:58;5.20;;;1.00;;
16640;SDS011;8434;47.990;7.880;2023-04-01T02:47:44;1.60;;;0.50;;
16640;SDS011;8434;47.990;7.880;2023-04-01T02:50:29;5.53;;;1.10;;
16640;SDS011;8434;47.990;7.880;2023-04-01T02:53:15;0.53;;;0.33;;
16640;SDS011;8434;47.990;7.880;2023-04-01T02:56:00;3.13;;;0.70;;
16640;SDS011;8434;47.990;7.880;2023-04-01T02:58:47;4.93;;;0.90;;
16640;SDS011;8434;47.990;7.880;2023-04-01T03:01:33;6.53;;;1.30;;
16640;SDS011;8434;47.990;7.880;2023-04-01T03:04:18;3.87;;;1.10;;
16640;SDS011;8434;47.990;7.880;2023-04-01T03:07:04;9.13;;;1.80;;
16640;SDS011;8434;47.990;7.880;2023-04-01T03:09:49;3.10;;;1.40;;
16640;SDS011;8434;47.990;7.880;2023-04-01T03:12:35;6.50;;;1.70;;
16640;SDS011;8434;47.990;7.880;2023-04-01T03:15:22;8.87;;;2.43;;
16640;SDS011;8434;47.990;7.880;2023-04-01T03:18:07;7.17;;;1.60;;
16640;SDS011;8434;47.990;7.880;2023-04-01T03:20:53;4.60;;;1.30;;
16640;SDS011;8434;47.990;7.880;2023-04-01T03:23:38;8.77;;;2.00;;
16640;SDS011;8434;47.990;7.880;2023-04-01T03:26:23;9.50;;;2.30;;
16640;SDS011;8434;47.990;7.880;2023-04-01T03:29:10;4.40;;;0.90;;
16640;SDS011;8434;47.990;7.880;2023-04-01T03:31:57;4.63;;;1.43;;
16640;SDS011;8434;47.990;7.880;2023-04-01T03:34:42;3.37;;;0.90;;
16640;SDS011;8434;47.990;7.880;2023-04-01T03:37:28;6.30;;;1.00;;
16640;SDS011;8434;47.990;7.880;2023-04-01T03:40:13;4.30;;;1.20;;
16640;SDS011;8434;47.990;7.880;2023-04-01T03:42:59;4.57;;;0.90;;
16640;SDS011;8434;47.990;7.880;2023-04-01T03:45:44;4.60;;;1.00;;
16640;SDS011;8434;47.990;7.880;2023-04-01T03:48:32;1.23;;;0.50;;
16640;SDS011;8434;47.990;7.880;2023-04-01T03:51:17;3.83;;;0.97;;
16640;SDS011;8434;47.990;7.880;2023-04-01T03:54:03;2.47;;;0.67;;
16640;SDS011;8434;47.990;7.880;2023-04-01T03:56:48;2.93;;;1.10;;
16640;SDS011;8434;47.990;7.880;2023-04-01T03:59:34;6.33;;;1.10;;
16640;SDS011;8434;47.990;7.880;2023-04-01T04:02:20;3.50;;;0.70;;
16640;SDS011;8434;47.990;7.880;2023-04-01T04:05:07;3.67;;;0.63;;
16640;SDS011;8434;47.990;7.880;2023-04-01T04:07:54;3.43;;;1.10;;
16640;SDS011;8434;47.990;7.880;2023-04-01T04:10:39;5.77;;;0.90;;
16640;SDS011;8434;47.990;7.880;2023-04-01T04:13:25;2.70;;;0.50;;
16640;SDS011;8434;47.990;7.880;2023-04-01T04:16:17;1.03;;;0.40;;
16640;SDS011;8434;47.990;7.880;2023-04-01T04:19:07;5.23;;;0.90;;
16640;SDS011;8434;47.990;7.880;2023-04-01T04:21:54;1.67;;;0.63;;
16640;SDS011;8434;47.990;7.880;2023-04-01T04:24:40;3.03;;;0.90;;
16640;SDS011;8434;47.990;7.880;2023-04-01T04:27:28;2.23;;;0.80;;
16640;SDS011;8434;47.990;7.880;2023-04-01T04:30:24;2.60;;;0.87;;
16640;SDS011;8434;47.990;7.880;2023-04-01T04:33:10;3.83;;;0.73;;
16640;SDS011;8434;47.990;7.880;2023-04-01T04:35:56;2.03;;;0.50;;
16640;SDS011;8434;47.990;7.880;2023-04-01T04:38:43;3.10;;;0.70;;
16640;SDS011;8434;47.990;7.880;2023-04-01T04:41:28;3.37;;;0.93;;
16640;SDS011;8434;47.990;7.880;2023-04-01T04:44:14;3.53;;;0.70;;
16640;SDS011;8434;47.990;7.880;2023-04-01T04:47:00;4.53;;;0.97;;
16640;SDS011;8434;47.990;7.880;2023-04-01T04:49:45;5.07;;;0.90;;
16640;SDS011;8434;47.990;7.880;2023-04-01T04:52:31;2.90;;;1.20;;
16640;SDS011;8434;47.990;7.880;2023-04-01T04:55:18;3.40;;;1.10;;
16640;SDS011;8434;47.990;7.880;2023-04-01T04:58:08;2.90;;;0.80;;
16640;SDS011;8434;47.990;7.880;2023-04-01T05:00:59;6.33;;;1.03;;
16640;SDS011;8434;47.990;7.880;2023-04-01T05:03:48;4.33;;;0.97;;
16640;SDS011;8434;47.990;7.880;2023-04-01T05:06:33;3.27;;;0.93;;
16640;SDS011;8434;47.990;7.880;2023-04-01T05:09:19;6.27;;;1.07;;
16640;SDS011;8434;47.990;7.880;2023-04-01T05:12:06;4.50;;;1.10;;
16640;SDS011;8434;47.990;7.880;2023-04-01T05:15:11;3.03;;;0.70;;
16640;SDS011;8434;47.990;7.880;2023-04-01T05:17:57;2.20;;;0.53;;
16640;SDS011;8434;47.990;7.880;2023-04-01T05:20:46;1.47;;;0.73;;
16640;SDS011;8434;47.990;7.880;2023-04-01T05:23:31;3.03;;;0.90;;
16640;SDS011;8434;47.990;7.880;2023-04-01T05:26:17;2.93;;;0.80;;
16640;SDS011;8434;47.990;7.880;2023-04-01T05:29:04;4.30;;;0.67;;
16640;SDS011;8434;47.990;7.880;2023-04-01T05:31:50;2.73;;;1.07;;
16640;SDS011;8434;47.990;7.880;2023-04-01T05:34:36;9.70;;;1.70;;
16640;SDS011;8434;47.990;7.880;2023-04-01T05:37:21;1.87;;;0.73;;
16640;SDS011;8434;47.990;7.880;2023-04-01T05:40:08;5.63;;;0.83;;
16640;SDS011;8434;47.990;7.880;2023-04-01T05:42:53;3.37;;;0.80;;
16640;SDS011;8434;47.990;7.880;2023-04-01T05:45:40;2.77;;;1.13;;
16640;SDS011;8434;47.990;7.880;2023-04-01T05:48:46;2.30;;;0.53;;
16640;SDS011;8434;47.990;7.880;2023-04-01T05:51:31;5.17;;;0.97;;
16640;SDS011;8434;47.990;7.880;2023-04-01T05:54:17;3.30;;;0.90;;
16640;SDS011;8434;47.990;7.880;2023-04-01T05:57:03;3.80;;;1.33;;
16640;SDS011;8434;47.990;7.880;2023-04-01T05:59:49;3.73;;;1.17;;
16640;SDS011;8434;47.990;7.880;2023-04-01T06:02:36;4.40;;;1.17;;
16640;SDS011;8434;47.990;7.880;2023-04-01T06:05:22;3.80;;;0.83;;
16640;SDS011;8434;47.990;7.880;2023-04-01T06:08:10;3.23;;;1.10;;
16640;SDS011;8434;47.990;7.880;2023-04-01T06:10:58;4.37;;;0.70;;
16640;SDS011;8434;47.990;7.880;2023-04-01T06:16:54;3.50;;;0.93;;
16640;SDS011;8434;47.990;7.880;2023-04-01T06:19:43;1.70;;;0.63;;
16640;SDS011;8434;47.990;7.880;2023-04-01T06:22:35;2.60;;;0.80;;
16640;SDS011;8434;47.990;7.880;2023-04-01T06:25:29;1.40;;;0.60;;
16640;SDS011;8434;47.990;7.880;2023-04-01T06:31:38;1.60;;;0.70;;
16640;SDS011;8434;47.990;7.880;2023-04-01T06:37:32;1.00;;;0.70;;
16640;SDS011;8434;47.990;7.880;2023-04-01T06:40:30;3.73;;;0.70;;
16640;SDS011;8434;47.990;7.880;2023-04-01T06:43:22;2.83;;;1.00;;
16640;SDS011;8434;47.990;7.880;2023-04-01T06:46:31;2.37;;;0.57;;
16640;SDS011;8434;47.990;7.880;2023-04-01T06:49:55;3.20;;;0.63;;
16640;SDS011;8434;47.990;7.880;2023-04-01T06:53:06;3.53;;;0.60;;
16640;SDS011;8434;47.990;7.880;2023-04-01T06:56:14;2.47;;;0.90;;
16640;SDS011;8434;47.990;7.880;2023-04-01T06:59:15;1.97;;;0.50;;
16640;SDS011;8434;47.990;7.880;2023-04-01T07:02:04;1.33;;;0.50;;
16640;SDS011;8434;47.990;7.880;2023-04-01T07:04:52;2.97;;;0.70;;
16640;SDS011;8434;47.990;7.880;2023-04-01T07:07:39;1.37;;;0.60;;
16640;SDS011;8434;47.990;7.880;2023-04-01T07:10:32;0.73;;;0.40;;
16640;SDS011;8434;47.990;7.880;2023-04-01T07:13:39;0.47;;;0.47;;
16640;SDS011;8434;47.990;7.880;2023-04-01T07:16:33;6.93;;;1.10;;
16640;SDS011;8434;47.990;7.880;2023-04-01T07:19:20;1.80;;;0.80;;
16640;SDS011;8434;47.990;7.880;2023-04-01T07:22:21;2.03;;;0.50;;
16640;SDS011;8434;47.990;7.880;2023-04-01T07:25:33;4.00;;;0.80;;
16640;SDS011;8434;47.990;7.880;2023-04-01T07:28:51;3.33;;;1.03;;
16640;SDS011;8434;47.990;7.880;2023-04-01T07:32:07;3.17;;;0.70;;
16640;SDS011;8434;47.990;7.880;2023-04-01T07:35:04;1.47;;;0.60;;
16640;SDS011;8434;47.990;7.880;2023-04-01T07:37:53;2.70;;;0.57;;
16640;SDS011;8434;47.990;7.880;2023-04-01T07:40:47;1.80;;;0.63;;
16640;SDS011;8434;47.990;7.880;2023-04-01T07:43:38;1.83;;;0.50;;
16640;SDS011;8434;47.990;7.880;2023-04-01T07:46:52;3.00;;;0.80;;
16640;SDS011;8434;47.990;7.880;2023-04-01T07:49:43;3.73;;;0.87;;
16640;SDS011;8434;47.990;7.880;2023-04-01T07:52:34;3.73;;;1.03;;
16640;SDS011;8434;47.990;7.880;2023-04-01T07:55:31;4.33;;;0.70;;
16640;SDS011;8434;47.990;7.880;2023-04-01T07:58:21;3.20;;;1.30;;
16640;SDS011;8434;47.990;7.880;2023-04-01T08:01:10;2.97;;;0.57;;
16640;SDS011;8434;47.990;7.880;2023-04-01T08:04:14;3.00;;;0.70;;
16640;SDS011;8434;47.990;7.880;2023-04-01T08:07:05;5.90;;;0.70;;
16640;SDS011;8434;47.990;7.880;2023-04-01T08:09:55;2.73;;;1.20;;
16640;SDS011;8434;47.990;7.880;2023-04-01T08:13:04;1.70;;;0.53;;
16640;SDS011;8434;47.990;7.880;2023-04-01T08:16:34;0.87;;;0.50;;
16640;SDS011;8434;47.990;7.880;2023-04-01T08:19:25;0.83;;;0.47;;
16640;SDS011;8434;47.990;7.880;2023-04-01T08:22:15;0.70;;;0.50;;
16640;SDS011;8434;47.990;7.880;2023-04-01T08:25:02;1.37;;;0.50;;
16640;SDS011;8434;47.990;7.880;2023-04-01T08:27:53;1.67;;;0.50;;
16640;SDS011;8434;47.990;7.880;2023-04-01T08:30:40;0.30;;;0.30;;
16640;SDS011;8434;47.990;7.880;2023-04-01T08:33:29;2.70;;;0.53;;
16640;SDS011;8434;47.990;7.880;2023-04-01T08:36:22;1.57;;;0.70;;
16640;SDS011;8434;47.990;7.880;2023-04-01T08:39:30;2.50;;;0.80;;
16640;SDS011;8434;47.990;7.880;2023-04-01T08:42:31;0.83;;;0.40;;
16640;SDS011;8434;47.990;7.880;2023-04-01T08:45:44;2.00;;;0.50;;
16640;SDS011;8434;47.990;7.880;2023-04-01T08:48:37;1.93;;;0.50;;
16640;SDS011;8434;47.990;7.880;2023-04-01T08:54:53;2.73;;;0.50;;
16640;SDS011;8434;47.990;7.880;2023-04-01T09:01:26;4.43;;;0.77;;
16640;SDS011;8434;47.990;7.880;2023-04-01T09:04:22;1.57;;;0.67;;
16640;SDS011;8434;47.990;7.880;2023-04-01T09:07:13;3.83;;;0.77;;
16640;SDS011;8434;47.990;7.880;2023-04-01T09:10:11;0.50;;;0.40;;
16640;SDS011;8434;47.990;7.880;2023-04-01T09:13:15;2.00;;;0.60;;
16640;SDS011;8434;47.990;7.880;2023-04-01T09:19:16;2.67;;;0.60;;
16640;SDS011;8434;47.990;7.880;2023-04-01T09:22:23;3.90;;;0.80;;
16640;SDS011;8434;47.990;7.880;2023-04-01T09:25:23;1.73;;;0.50;;
16640;SDS011;8434;47.990;7.880;2023-04-01T09:28:13;3.07;;;0.93;;
16640;SDS011;8434;47.990;7.880;2023-04-01T09:31:09;1.43;;;0.47;;
16640;SDS011;8434;47.990;7.880;2023-04-01T09:37:33;2.17;;;0.60;;
16640;SDS011;8434;47.990;7.880;2023-04-01T09:40:28;1.63;;;0.70;;
16640;SDS011;8434;47.990;7.880;2023-04-01T09:43:27;2.63;;;0.80;;
16640;SDS011;8434;47.990;7.880;2023-04-01T09:46:15;2.40;;;0.60;;
16640;SDS011;8434;47.990;7.880;2023-04-01T09:49:11;3.23;;;0.90;;
16640;SDS011;8434;47.990;7.880;2023-04-01T09:55:15;1.33;;;0.70;;
16640;SDS011;8434;47.990;7.880;2023-04-01T09:58:08;2.80;;;0.90;;
16640;SDS011;8434;47.990;7.880;2023-04-01T10:04:41;2.00;;;0.80;;
16640;SDS011;8434;47.990;7.880;2023-04-01T10:10:41;2.90;;;0.80;;
16640;SDS011;8434;47.990;7.880;2023-04-01T10:16:47;4.07;;;0.87;;
16640;SDS011;8434;47.990;7.880;2023-04-01T10:19:49;2.97;;;0.50;;
16640;SDS011;8434;47.990;7.880;2023-04-01T10:22:57;0.87;;;0.40;;
16640;SDS011;8434;47.990;7.880;2023-04-01T10:32:12;1.17;;;0.70;;
16640;SDS011;8434;47.990;7.880;2023-04-01T10:38:16;3.53;;;1.37;;
16640;SDS011;8434;47.990;7.880;2023-04-01T10:41:19;1.87;;;0.53;;
16640;SDS011;8434;47.990;7.880;2023-04-01T10:54:16;0.77;;;0.43;;
16640;SDS011;8434;47.990;7.880;2023-04-01T10:57:27;2.90;;;0.97;;
16640;SDS011;8434;47.990;7.880;2023-04-01T11:04:35;2.50;;;0.60;;
16640;SDS011;8434;47.990;7.880;2023-04-01T11:11:18;0.50;;;0.50;;
16640;SDS011;8434;47.990;7.880;2023-04-01T11:14:19;1.50;;;0.60;;
16640;SDS011;8434;47.990;7.880;2023-04-01T11:17:22;0.70;;;0.50;;
16640;SDS011;8434;47.990;7.880;2023-04-01T11:23:36;3.50;;;0.93;;
16640;SDS011;8434;47.990;7.880;2023-04-01T11:26:31;1.53;;;0.60;;
16640;SDS011;8434;47.990;7.880;2023-04-01T11:29:48;1.20;;;0.40;;
16640;SDS011;8434;47.990;7.880;2023-04-01T11:32:46;2.40;;;0.60;;
16640;SDS011;8434;47.990;7.880;2023-04-01T11:35:40;1.17;;;0.60;;
16640;SDS011;8434;47.990;7.880;2023-04-01T11:38:31;0.93;;;0.53;;
16640;SDS011;8434;47.990;7.880;2023-04-01T11:41:40;2.27;;;0.87;;
16640;SDS011;8434;47.990;7.880;2023-04-01T11:44:53;1.30;;;0.70;;
16640;SDS011;8434;47.990;7.880;2023-04-01T11:47:55;2.77;;;0.70;;
16640;SDS011;8434;47.990;7.880;2023-04-01T11:50:53;1.53;;;0.70;;
16640;SDS011;8434;47.990;7.880;2023-04-01T11:53:44;3.17;;;1.00;;
16640;SDS011;8434;47.990;7.880;2023-04-01T11:56:42;2.20;;;0.60;;
16640;SDS011;8434;47.990;7.880;2023-04-01T11:59:46;2.63;;;0.60;;
16640;SDS011;8434;47.990;7.880;2023-04-01T12:02:40;3.13;;;0.80;;
16640;SDS011;8434;47.990;7.880;2023-04-01T12:05:36;1.23;;;0.90;;
16640;SDS011;8434;47.990;7.880;2023-04-01T12:08:26;3.10;;;0.63;;
16640;SDS011;8434;47.990;7.880;2023-04-01T12:11:15;1.37;;;0.60;;
16640;SDS011;8434;47.990;7.880;2023-04-01T12:14:05;1.40;;;0.60;;
16640;SDS011;8434;47.990;7.880;2023-04-01T12:16:59;1.73;;;0.70;;
16640;SDS011;8434;47.990;7.880;2023-04-01T12:19:48;2.63;;;0.60;;
16640;SDS011;8434;47.990;7.880;2023-04-01T12:22:40;1.30;;;0.67;;
16640;SDS011;8434;47.990;7.880;2023-04-01T12:25:29;2.57;;;1.60;;
16640;SDS011;8434;47.990;7.880;2023-04-01T12:28:21;1.33;;;0.77;;
16640;SDS011;8434;47.990;7.880;2023-04-01T12:31:16;0.67;;;0.50;;
16640;SDS011;8434;47.990;7.880;2023-04-01T12:34:13;1.30;;;0.57;;
16640;SDS011;8434;47.990;7.880;2023-04-01T12:37:04;2.03;;;0.60;;
16640;SDS011;8434;47.990;7.880;2023-04-01T12:40:02;2.13;;;0.50;;
16640;SDS011;8434;47.990;7.880;2023-04-01T12:45:54;1.60;;;0.40;;
16640;SDS011;8434;47.990;7.880;2023-04-01T12:48:57;1.03;;;0.50;;
16640;SDS011;8434;47.990;7.880;2023-04-01T12:51:50;2.03;;;0.60;;
16640;SDS011;8434;47.990;7.880;2023-04-01T12:54:46;2.20;;;0.47;;
16640;SDS011;8434;47.990;7.880;2023-04-01T12:57:39;0.73;;;0.53;;
16640;SDS011;8434;47.990;7.880;2023-04-01T13:00:34;1.83;;;0.40;;
16640;SDS011;8434;47.990;7.880;2023-04-01T13:03:33;1.13;;;0.50;;
16640;SDS011;8434;47.990;7.880;2023-04-01T13:09:33;0.90;;;0.50;;
16640;SDS011;8434;47.990;7.880;2023-04-01T13:12:27;0.63;;;0.50;;
16640;SDS011;8434;47.990;7.880;2023-04-01T13:15:18;0.50;;;0.50;;
16640;SDS011;8434;47.990;7.880;2023-04-01T13:18:11;1.13;;;0.60;;
16640;SDS011;8434;47.990;7.880;2023-04-01T13:21:03;2.20;;;1.17;;
16640;SDS011;8434;47.990;7.880;2023-04-01T13:23:54;0.80;;;0.40;;
16640;SDS011;8434;47.990;7.880;2023-04-01T13:26:45;1.87;;;0.47;;
16640;SDS011;8434;47.990;7.880;2023-04-01T13:29:34;2.20;;;0.50;;
16640;SDS011;8434;47.990;7.880;2023-04-01T13:32:27;1.10;;;0.50;;
16640;SDS011;8434;47.990;7.880;2023-04-01T13:35:17;1.60;;;0.50;;
16640;SDS011;8434;47.990;7.880;2023-04-01T13:41:06;0.83;;;0.50;;
16640;SDS011;8434;47.990;7.880;2023-04-01T13:43:56;0.93;;;0.60;;
16640;SDS011;8434;47.990;7.880;2023-04-01T13:46:48;1.40;;;0.63;;
16640;SDS011;8434;47.990;7.880;2023-04-01T13:49:41;1.57;;;0.40;;
16640;SDS011;8434;47.990;7.880;2023-04-01T13:52:33;1.67;;;1.40;;
16640;SDS011;8434;47.990;7.880;2023-04-01T13:55:26;1.40;;;0.50;;
16640;SDS011;8434;47.990;7.880;2023-04-01T13:58:20;1.50;;;0.50;;
16640;SDS011;8434;47.990;7.880;2023-04-01T14:01:12;1.83;;;0.63;;
16640;SDS011;8434;47.990;7.880;2023-04-01T14:04:18;0.77;;;0.40;;
16640;SDS011;8434;47.990;7.880;2023-04-01T14:07:12;1.43;;;0.60;;
16640;SDS011;8434;47.990;7.880;2023-04-01T14:10:02;2.40;;;0.50;;
16640;SDS011;8434;47.990;7.880;2023-04-01T14:12:51;1.07;;;0.40;;
16640;SDS011;8434;47.990;7.880;2023-04-01T14:15:45;1.63;;;0.50;;
16640;SDS011;8434;47.990;7.880;2023-04-01T14:18:55;0.93;;;0.40;;
16640;SDS011;8434;47.990;7.880;2023-04-01T14:21:46;0.73;;;0.40;;
16640;SDS011;8434;47.990;7.880;2023-04-01T14:24:41;3.20;;;0.60;;
16640;SDS011;8434;47.990;7.880;2023-04-01T14:33:37;3.47;;;0.50;;
16640;SDS011;8434;47.990;7.880;2023-04-01T14:36:35;1.90;;;0.70;;
16640;SDS011;8434;47.990;7.880;2023-04-01T14:39:38;1.30;;;0.60;;
16640;SDS011;8434;47.990;7.880;2023-04-01T14:42:36;0.90;;;0.30;;
16640;SDS011;8434;47.990;7.880;2023-04-01T14:45:40;1.10;;;0.50;;
16640;SDS011;8434;47.990;7.880;2023-04-01T14:48:30;3.07;;;2.20;;
16640;SDS011;8434;47.990;7.880;2023-04-01T14:51:18;2.10;;;1.10;;
16640;SDS011;8434;47.990;7.880;2023-04-01T14:54:08;3.30;;;1.37;;
16640;SDS011;8434;47.990;7.880;2023-04-01T14:57:01;0.60;;;0.50;;
16640;SDS011;8434;47.990;7.880;2023-04-01T14:59:49;1.23;;;0.40;;
16640;SDS011;8434;47.990;7.880;2023-04-01T15:02:42;1.20;;;0.70;;
16640;SDS011;8434;47.990;7.880;2023-04-01T15:05:32;1.07;;;0.60;;
16640;SDS011;8434;47.990;7.880;2023-04-01T15:08:24;1.93;;;1.10;;
16640;SDS011;8434;47.990;7.880;2023-04-01T15:11:23;0.47;;;0.40;;
16640;SDS011;8434;47.990;7.880;2023-04-01T15:14:14;0.33;;;0.30;;
16640;SDS011;8434;47.990;7.880;2023-04-01T15:17:03;0.50;;;0.40;;
16640;SDS011;8434;47.990;7.880;2023-04-01T15:19:57;0.60;;;0.50;;
16640;SDS011;8434;47.990;7.880;2023-04-01T15:22:50;1.03;;;0.50;;
16640;SDS011;8434;47.990;7.880;2023-04-01T15:25:51;0.60;;;0.60;;
16640;SDS011;8434;47.990;7.880;2023-04-01T15:28:42;2.17;;;1.07;;
16640;SDS011;8434;47.990;7.880;2023-04-01T15:31:32;0.67;;;0.37;;
16640;SDS011;8434;47.990;7.880;2023-04-01T15:34:21;0.30;;;0.20;;
16640;SDS011;8434;47.990;7.880;2023-04-01T15:37:09;1.20;;;0.60;;
16640;SDS011;8434;47.990;7.880;2023-04-01T15:40:00;0.33;;;0.30;;
16640;SDS011;8434;47.990;7.880;2023-04-01T15:43:00;1.50;;;0.37;;
16640;SDS011;8434;47.990;7.880;2023-04-01T15:45:51;0.67;;;0.67;;
16640;SDS011;8434;47.990;7.880;2023-04-01T15:48:48;1.97;;;0.40;;
16640;SDS011;8434;47.990;7.880;2023-04-01T15:51:47;1.23;;;0.53;;
16640;SDS011;8434;47.990;7.880;2023-04-01T15:54:47;1.27;;;0.60;;
16640;SDS011;8434;47.990;7.880;2023-04-01T15:57:37;2.10;;;0.67;;
16640;SDS011;8434;47.990;7.880;2023-04-01T16:00:26;1.80;;;0.40;;
16640;SDS011;8434;47.990;7.880;2023-04-01T16:03:19;0.50;;;0.40;;
16640;SDS011;8434;47.990;7.880;2023-04-01T16:06:11;1.00;;;0.87;;
16640;SDS011;8434;47.990;7.880;2023-04-01T16:09:02;0.70;;;0.50;;
16640;SDS011;8434;47.990;7.880;2023-04-01T16:11:53;0.93;;;0.50;;
16640;SDS011;8434;47.990;7.880;2023-04-01T16:14:44;2.17;;;0.60;;
16640;SDS011;8434;47.990;7.880;2023-04-01T16:17:40;0.43;;;0.43;;
16640;SDS011;8434;47.990;7.880;2023-04-01T16:20:39;1.17;;;0.60;;
16640;SDS011;8434;47.990;7.880;2023-04-01T16:23:30;1.20;;;0.70;;
16640;SDS011;8434;47.990;7.880;2023-04-01T16:26:18;0.67;;;0.50;;
16640;SDS011;8434;47.990;7.880;2023-04-01T16:29:08;1.40;;;0.80;;
16640;SDS011;8434;47.990;7.880;2023-04-01T16:31:55;1.33;;;0.60;;
16640;SDS011;8434;47.990;7.880;2023-04-01T16:34:46;0.37;;;0.30;;
16640;SDS011;8434;47.990;7.880;2023-04-01T16:37:36;2.00;;;0.90;;
16640;SDS011;8434;47.990;7.880;2023-04-01T16:40:26;0.80;;;0.47;;
16640;SDS011;8434;47.990;7.880;2023-04-01T16:43:19;1.20;;;0.50;;
16640;SDS011;8434;47.990;7.880;2023-04-01T16:46:14;2.13;;;0.70;;
16640;SDS011;8434;47.990;7.880;2023-04-01T16:51:09;1.83;;;0.60;;
16640;SDS011;8434;47.990;7.880;2023-04-01T16:54:01;0.90;;;0.50;;
16640;SDS011;8434;47.990;7.880;2023-04-01T16:56:48;0.60;;;0.43;;
16640;SDS011;8434;47.990;7.880;2023-04-01T16:59:35;0.83;;;0.40;;
16640;SDS011;8434;47.990;7.880;2023-04-01T17:02:22;0.70;;;0.70;;
16640;SDS011;8434;47.990;7.880;2023-04-01T17:05:09;1.00;;;0.63;;
16640;SDS011;8434;47.990;7.880;2023-04-01T17:08:00;1.23;;;0.70;;
16640;SDS011;8434;47.990;7.880;2023-04-01T17:10:51;1.80;;;1.20;;
16640;SDS011;8434;47.990;7.880;2023-04-01T17:13:40;1.13;;;0.70;;
16640;SDS011;8434;47.990;7.880;2023-04-01T17:22:33;1.70;;;0.80;;
16640;SDS011;8434;47.990;7.880;2023-04-01T17:25:25;1.27;;;0.80;;
16640;SDS011;8434;47.990;7.880;2023-04-01T17:28:17;2.53;;;0.90;;
16640;SDS011;8434;47.990;7.880;2023-04-01T17:31:07;1.27;;;0.70;;
16640;SDS011;8434;47.990;7.880;2023-04-01T17:34:01;1.70;;;0.50;;
16640;SDS011;8434;47.990;7.880;2023-04-01T17:36:55;1.53;;;0.70;;
16640;SDS011;8434;47.990;7.880;2023-04-01T17:39:44;3.57;;;0.90;;
16640;SDS011;8434;47.990;7.880;2023-04-01T17:42:34;2.77;;;0.80;;
16640;SDS011;8434;47.990;7.880;2023-04-01T17:45:27;1.67;;;0.63;;
16640;SDS011;8434;47.990;7.880;2023-04-01T17:48:17;1.13;;;0.40;;
16640;SDS011;8434;47.990;7.880;2023-04-01T17:51:10;1.80;;;0.67;;
16640;SDS011;8434;47.990;7.880;2023-04-01T17:53:59;3.20;;;0.70;;
16640;SDS011;8434;47.990;7.880;2023-04-01T17:56:52;0.50;;;0.50;;
16640;SDS011;8434;47.990;7.880;2023-04-01T17:59:44;0.80;;;0.50;;
16640;SDS011;8434;47.990;7.880;2023-04-01T18:02:33;2.57;;;1.00;;
16640;SDS011;8434;47.990;7.880;2023-04-01T18:05:26;1.70;;;0.93;;
16640;SDS011;8434;47.990;7.880;2023-04-01T18:08:14;1.43;;;0.60;;
16640;SDS011;8434;47.990;7.880;2023-04-01T18:11:05;2.40;;;0.70;;
16640;SDS011;8434;47.990;7.880;2023-04-01T18:17:04;0.80;;;0.53;;
16640;SDS011;8434;47.990;7.880;2023-04-01T18:19:54;1.37;;;0.67;;
16640;SDS011;8434;47.990;7.880;2023-04-01T18:22:43;1.23;;;0.50;;
16640;SDS011;8434;47.990;7.880;2023-04-01T18:25:31;1.13;;;0.63;;
16640;SDS011;8434;47.990;7.880;2023-04-01T18:28:20;0.93;;;0.40;;
16640;SDS011;8434;47.990;7.880;2023-04-01T18:31:08;0.50;;;0.50;;
16640;SDS011;8434;47.990;7.880;2023-04-01T18:33:59;1.50;;;0.57;;
16640;SDS011;8434;47.990;7.880;2023-04-01T18:36:47;1.83;;;0.70;;
16640;SDS011;8434;47.990;7.880;2023-04-01T18:39:35;1.00;;;0.60;;
16640;SDS011;8434;47.990;7.880;2023-04-01T18:42:24;1.20;;;0.67;;
16640;SDS011;8434;47.990;7.880;2023-04-01T18:45:17;1.47;;;0.30;;
16640;SDS011;8434;47.990;7.880;2023-04-01T18:48:07;2.03;;;0.83;;
16640;SDS011;8434;47.990;7.880;2023-04-01T18:50:58;0.50;;;0.50;;
16640;SDS011;8434;47.990;7.880;2023-04-01T18:53:47;2.30;;;0.57;;
16640;SDS011;8434;47.990;7.880;2023-04-01T18:56:35;2.13;;;0.60;;
16640;SDS011;8434;47.990;7.880;2023-04-01T18:59:23;0.50;;;0.40;;
16640;SDS011;8434;47.990;7.880;2023-04-01T19:02:15;0.60;;;0.50;;
16640;SDS011;8434;47.990;7.880;2023-04-01T19:05:09;0.67;;;0.57;;